ADDS TAF Board (Experimental) INFO Settings
IDs: Format: Expanded Condensed

KLAX - Los Angeles Intl, CA, US

Issued at 2344 UTC 03 May 2016
Updated at: 0156 UTC 04 May 2016
Time0153Z 04/02Z 04/03Z 04/04Z 04/05Z 04/06Z 04/07Z 04/08Z 04/09Z 04/10Z 04/11Z 04/12Z 04/13Z 04/14Z
Type OBS PRVL PRVL PRVL PRVL PRVL PRVL PRVL PRVL PRVL PRVL PRVL PRVL PRVL
VIS 8 >6 >6 >6 >6 >6 >6 >6 >6 >6 >6 >6 >6 >6
CIG 8 8 8 8 8 8 8 8 8 8 8 8 8 8
Cover OVC BKN BKN OVC OVC OVC OVC OVC OVC OVC OVC OVC OVC OVC
FltCat IFR IFR IFR IFR IFR IFR IFR IFR IFR IFR IFR IFR IFR IFR
WX -- -- -- -- -- -- -- -- -- -- -- -- -- --
WDir 250 260 260 VRB VRB VRB VRB VRB VRB VRB VRB VRB VRB VRB
WSpd 12 12 12 3 3 3 3 3 3 3 3 3 3 3
WGst -- -- -- -- -- -- -- -- -- -- -- -- -- --
R06/24
XWnd -3 -1 -1 VRB VRB VRB VRB VRB VRB VRB VRB VRB VRB VRB
HWnd -12 -12 -12 VRB VRB VRB VRB VRB VRB VRB VRB VRB VRB VRB
R07/25
XWnd -3 -1 -1 VRB VRB VRB VRB VRB VRB VRB VRB VRB VRB VRB
HWnd -12 -12 -12 VRB VRB VRB VRB VRB VRB VRB VRB VRB VRB VRB

NOTE: TEMPO conditions in [brackets]. Keep in mind TEMPO conditions might be better (lower impact) than prevailing conditions.

Raw TAF
KLAX 032344Z 0400/0506 26012KT P6SM BKN008 BKN150
  FM040400 VRB03KT P6SM OVC008
  FM041700 24007KT P6SM BKN010 BKN150
  FM041900 26014KT P6SM SCT010 BKN150
  FM050500 VRB03KT P6SM OVC015


Raw METAR
KLAX 040153Z 25012KT 8SM OVC008 16/13 A2992 RMK AO2 SLP130 T01560128 $
KLAX 040053Z 25010KT 8SM BKN008 OVC200 16/13 A2990 RMK AO2 SLP126 T01610133 $
KLAX 032353Z 25013KT 8SM OVC008 18/14 A2991 RMK AO2 SLP129 T01780139 10206 20178 56016 $
KLAX 032336Z 25014KT 8SM BKN008 OVC200 18/14 A2992 RMK AO2 $
KLAX 032253Z 26014KT 9SM FEW009 BKN150 OVC200 19/14 A2992 RMK AO2 SLP130 T01940139 $

METAR Board
Radar Display
Forecast Discussion

TAF Board Legend

Potential Impact
Threat None Slight Moderate High
Visibility (sm) ≥5.1 5.1>X≥3 3>X≥1 <1
Ceiling (100 ft) ≥30.1 30.1>X≥10 10>X≥5 <5
Wind Speed (kt) <10 10≤X<20 20≤X<30 ≥30
Wind Gust (kt) <15 15≤X<25 25≤X<35 ≥35
Weather No Wx Reported VCTS,-TS,-FZRA,SN TS,FZRA +TS,+FZRA,+SN